createdAt,value
2023-01-17T00:00:48.972Z,99514.50
2023-01-17T00:04:11.831Z,99518.84
2023-01-17T00:07:37.029Z,99520.69
2023-01-17T00:10:42.721Z,99514.06
2023-01-17T00:13:47.714Z,99516.69
2023-01-17T00:16:52.469Z,99524.31
2023-01-17T00:20:15.124Z,99512.03
2023-01-17T00:23:55.509Z,99516.81
2023-01-17T00:27:14.503Z,99499.25
2023-01-17T00:30:19.394Z,99505.13
2023-01-17T00:33:23.601Z,99495.00
2023-01-17T00:36:27.426Z,99502.50
2023-01-17T00:39:32.634Z,99505.81
2023-01-17T00:42:36.751Z,99503.41
2023-01-17T00:46:00.298Z,99513.47
2023-01-17T00:49:23.849Z,99508.34
2023-01-17T00:52:46.791Z,99515.81
2023-01-17T00:56:10.566Z,99520.72
2023-01-17T00:59:33.227Z,99505.50
2023-01-17T01:02:56.824Z,99502.09
2023-01-17T01:06:22.823Z,99497.78
2023-01-17T01:09:45.617Z,99499.41
2023-01-17T01:13:09.789Z,99497.56
2023-01-17T01:16:33.048Z,99500.03
2023-01-17T01:19:55.369Z,99512.63
2023-01-17T01:23:17.921Z,99500.00
2023-01-17T01:26:40.860Z,99497.34
2023-01-17T01:30:05.116Z,99481.28
2023-01-17T01:33:19.177Z,99481.19
2023-01-17T01:36:24.653Z,99471.03
2023-01-17T01:39:29.865Z,99467.66
2023-01-17T01:42:34.898Z,99453.25
2023-01-17T01:45:42.123Z,99443.22
2023-01-17T01:48:50.982Z,99451.50
2023-01-17T01:51:58.765Z,99443.19
2023-01-17T01:55:07.428Z,99440.47
2023-01-17T01:58:16.570Z,99441.28
2023-01-17T02:01:23.212Z,99442.19
2023-01-17T02:04:29.224Z,99436.34
2023-01-17T02:07:37.520Z,99437.13
2023-01-17T02:10:44.692Z,99445.56
2023-01-17T02:13:49.715Z,99442.94
2023-01-17T02:17:08.314Z,99434.63
2023-01-17T02:20:31.279Z,99429.00
2023-01-17T02:23:55.234Z,99429.03
2023-01-17T02:27:09.224Z,99421.56
2023-01-17T02:30:38.749Z,99415.81
2023-01-17T02:33:48.432Z,99414.16
2023-01-17T02:36:57.841Z,99414.25
2023-01-17T02:40:08.613Z,99410.81
2023-01-17T02:43:17.532Z,99402.41
2023-01-17T02:46:24.351Z,99420.25
2023-01-17T02:49:32.677Z,99415.97
2023-01-17T02:52:51.116Z,99414.50
2023-01-17T02:56:01.123Z,99408.63
2023-01-17T02:59:16.882Z,99413.66
2023-01-17T03:02:29.302Z,99408.63
2023-01-17T03:05:37.990Z,99401.84
2023-01-17T03:08:47.837Z,99405.91
2023-01-17T03:11:53.240Z,99410.94
2023-01-17T03:14:58.253Z,99405.00
2023-01-17T03:18:07.255Z,99407.53
2023-01-17T03:21:12.463Z,99408.31
2023-01-17T03:24:17.896Z,99415.84
2023-01-17T03:27:22.956Z,99418.41
2023-01-17T03:30:28.371Z,99400.59
2023-01-17T03:33:34.828Z,99400.59
2023-01-17T03:36:39.840Z,99403.88
2023-01-17T03:39:47.397Z,99399.69
2023-01-17T03:42:53.483Z,99400.41
2023-01-17T03:46:04.755Z,99400.44
2023-01-17T03:49:14.105Z,99413.78
2023-01-17T03:52:20.340Z,99405.38
2023-01-17T03:55:25.138Z,99406.97
2023-01-17T03:58:30.137Z,99407.81
2023-01-17T04:01:35.469Z,99410.34
2023-01-17T04:04:41.883Z,99410.31
2023-01-17T04:07:47.007Z,99409.44
2023-01-17T04:10:52.276Z,99398.56
2023-01-17T04:13:57.945Z,99395.22
2023-01-17T04:17:04.299Z,99400.28
2023-01-17T04:20:17.247Z,99391.84
2023-01-17T04:23:22.828Z,99400.97
2023-01-17T04:26:27.984Z,99401.91
2023-01-17T04:29:33.188Z,99396.88
2023-01-17T04:32:38.385Z,99401.97
2023-01-17T04:35:44.685Z,99381.78
2023-01-17T04:38:49.764Z,99382.59
2023-01-17T04:41:54.612Z,99379.22
2023-01-17T04:45:05.072Z,99386.81
2023-01-17T04:48:12.829Z,99385.16
2023-01-17T04:51:19.339Z,99380.81
2023-01-17T04:54:24.761Z,99372.44
2023-01-17T04:57:30.213Z,99373.31
2023-01-17T05:00:35.028Z,99377.47
2023-01-17T05:03:40.181Z,99377.56
2023-01-17T05:06:47.160Z,99375.09
2023-01-17T05:09:52.354Z,99376.78
2023-01-17T05:12:58.278Z,99373.44
2023-01-17T05:16:03.476Z,99377.63
2023-01-17T05:19:08.890Z,99370.09
2023-01-17T05:22:16.106Z,99374.22
2023-01-17T05:25:21.484Z,99370.97
2023-01-17T05:28:44.420Z,99360.91
2023-01-17T05:31:49.663Z,99374.34
2023-01-17T05:34:55.012Z,99377.75
2023-01-17T05:38:01.938Z,99368.44
2023-01-17T05:41:08.510Z,99369.28
2023-01-17T05:44:16.380Z,99366.84
2023-01-17T05:47:21.896Z,99362.69
2023-01-17T05:50:29.612Z,99366.84
2023-01-17T05:53:36.110Z,99372.84
2023-01-17T05:56:41.361Z,99363.44
2023-01-17T05:59:46.436Z,99369.38
2023-01-17T06:02:53.723Z,99374.31
2023-01-17T06:05:59.080Z,99369.38
2023-01-17T06:09:06.066Z,99374.50
2023-01-17T06:12:12.001Z,99375.34
2023-01-17T06:15:18.685Z,99380.38
2023-01-17T06:18:23.829Z,99386.13
2023-01-17T06:21:30.392Z,99384.38
2023-01-17T06:24:37.319Z,99387.13
2023-01-17T06:27:45.491Z,99373.81
2023-01-17T06:30:50.965Z,99367.56
2023-01-17T06:33:56.451Z,99373.38
2023-01-17T06:37:01.565Z,99367.63
2023-01-17T06:40:09.918Z,99356.69
2023-01-17T06:43:15.950Z,99349.84
2023-01-17T06:46:21.466Z,99354.97
2023-01-17T06:49:27.063Z,99337.31
2023-01-17T06:52:32.093Z,99348.38
2023-01-17T06:55:40.576Z,99334.69
2023-01-17T06:58:46.053Z,99330.38
2023-01-17T07:01:51.207Z,99335.53
2023-01-17T07:04:56.287Z,99327.13
2023-01-17T07:08:01.615Z,99321.19
2023-01-17T07:11:09.677Z,99328.81
2023-01-17T07:14:17.205Z,99326.22
2023-01-17T07:17:22.386Z,99326.09
2023-01-17T07:20:28.185Z,99338.72
2023-01-17T07:23:33.623Z,99322.84
2023-01-17T07:26:40.834Z,99320.34
2023-01-17T07:29:45.626Z,99331.22
2023-01-17T07:32:54.148Z,99322.78
2023-01-17T07:36:06.367Z,99324.41
2023-01-17T07:39:12.425Z,99320.22
2023-01-17T07:42:19.443Z,99325.31
2023-01-17T07:45:24.320Z,99311.00
2023-01-17T07:48:29.507Z,99313.06
2023-01-17T07:51:36.103Z,99312.88
2023-01-17T07:54:41.326Z,99301.34
2023-01-17T07:57:51.112Z,99308.94
2023-01-17T08:00:56.463Z,99295.63
2023-01-17T08:04:01.857Z,99303.38
2023-01-17T08:07:08.545Z,99300.88
2023-01-17T08:10:18.072Z,99304.16
2023-01-17T08:13:25.250Z,99312.06
2023-01-17T08:16:30.672Z,99295.81
2023-01-17T08:19:36.124Z,99305.31
2023-01-17T08:22:41.237Z,99311.34
2023-01-17T08:25:46.702Z,99309.44
2023-01-17T08:28:57.119Z,99296.75
2023-01-17T08:32:02.489Z,99294.25
2023-01-17T08:35:09.302Z,99297.81
2023-01-17T08:38:15.708Z,99308.88
2023-01-17T08:41:22.686Z,99309.94
2023-01-17T08:44:29.295Z,99312.00
2023-01-17T08:47:34.774Z,99304.25
2023-01-17T08:50:40.436Z,99289.28
2023-01-17T08:53:45.661Z,99292.63
2023-01-17T08:56:52.863Z,99288.38
2023-01-17T08:59:59.880Z,99283.34
2023-01-17T09:03:05.543Z,99294.22
2023-01-17T09:06:14.483Z,99283.53
2023-01-17T09:09:19.702Z,99290.31
2023-01-17T09:12:24.912Z,99272.44
2023-01-17T09:15:31.563Z,99275.72
2023-01-17T09:18:37.349Z,99271.59
2023-01-17T09:21:42.436Z,99261.38
2023-01-17T09:24:47.825Z,99269.03
2023-01-17T09:27:52.756Z,99254.69
2023-01-17T09:30:59.335Z,99249.78
2023-01-17T09:34:05.639Z,99248.84
2023-01-17T09:37:12.323Z,99251.22
2023-01-17T09:40:21.387Z,99229.53
2023-01-17T09:43:31.956Z,99231.94
2023-01-17T09:46:40.519Z,99231.22
2023-01-17T09:49:47.161Z,99226.88
2023-01-17T09:52:53.203Z,99227.88
2023-01-17T09:56:00.741Z,99181.56
2023-01-17T09:59:20.249Z,99195.06
2023-01-17T10:02:52.080Z,99183.91
2023-01-17T10:06:09.432Z,99177.81
2023-01-17T10:09:44.345Z,99170.19
2023-01-17T10:12:54.907Z,99168.44
2023-01-17T10:16:14.249Z,99176.13
2023-01-17T10:19:42.198Z,99162.50
2023-01-17T10:23:03.980Z,99158.44
2023-01-17T10:26:11.862Z,99151.84
2023-01-17T10:29:21.061Z,99152.63
2023-01-17T10:32:30.588Z,99143.28
2023-01-17T10:35:39.390Z,99127.19
2023-01-17T10:38:48.554Z,99129.13
2023-01-17T10:41:59.256Z,99125.03
2023-01-17T10:45:07.600Z,99104.88
2023-01-17T10:48:17.053Z,99100.69
2023-01-17T10:51:35.144Z,99099.75
2023-01-17T10:54:49.934Z,99087.47
2023-01-17T10:57:55.653Z,99088.81
2023-01-17T11:01:06.560Z,99076.13
2023-01-17T11:04:20.793Z,99082.16
2023-01-17T11:07:28.933Z,99066.19
2023-01-17T11:10:40.979Z,99062.84
2023-01-17T11:13:48.703Z,99052.84
2023-01-17T11:17:02.231Z,99049.38
2023-01-17T11:20:20.105Z,99039.69
2023-01-17T11:23:32.601Z,99049.06
2023-01-17T11:26:38.714Z,99036.84
2023-01-17T11:29:43.807Z,99039.22
2023-01-17T11:32:54.048Z,99030.78
2023-01-17T11:35:59.240Z,99007.44
2023-01-17T11:39:08.062Z,98999.06
2023-01-17T11:42:33.168Z,98997.22
2023-01-17T11:45:38.891Z,98980.22
2023-01-17T11:48:44.282Z,98977.88
2023-01-17T11:51:49.467Z,98978.78
2023-01-17T11:54:57.529Z,98972.50
2023-01-17T11:58:02.702Z,98961.94
2023-01-17T12:01:20.457Z,98955.41
2023-01-17T12:04:29.919Z,98953.13
2023-01-17T12:07:39.221Z,98939.75
2023-01-17T12:10:55.001Z,98943.25
2023-01-17T12:14:04.260Z,98934.75
2023-01-17T12:17:20.076Z,98925.75
2023-01-17T12:20:29.465Z,98920.66
2023-01-17T12:23:56.139Z,98925.41
2023-01-17T12:27:10.077Z,98915.63
2023-01-17T12:30:30.879Z,98906.91
2023-01-17T12:33:45.802Z,98897.56
2023-01-17T12:36:54.636Z,98903.53
2023-01-17T12:40:01.453Z,98892.31
2023-01-17T12:43:13.547Z,98902.50
2023-01-17T12:46:28.819Z,98903.47
2023-01-17T12:49:41.648Z,98878.88
2023-01-17T12:52:55.353Z,98878.97
2023-01-17T12:56:05.485Z,98875.31
2023-01-17T12:59:16.735Z,98875.03
2023-01-17T13:02:31.351Z,98873.88
2023-01-17T13:05:40.619Z,98869.09
2023-01-17T13:08:50.440Z,98868.28
2023-01-17T13:12:02.285Z,98860.03
2023-01-17T13:15:17.210Z,98860.75
2023-01-17T13:18:26.413Z,98859.84
2023-01-17T13:21:32.847Z,98845.88
2023-01-17T13:24:45.850Z,98843.50
2023-01-17T13:28:04.881Z,98847.78
2023-01-17T13:31:31.453Z,98841.81
2023-01-17T13:34:52.970Z,98829.31
2023-01-17T13:38:23.246Z,98838.44
2023-01-17T13:41:44.192Z,98826.47
2023-01-17T13:44:49.360Z,98832.41
2023-01-17T13:48:31.752Z,98832.50
2023-01-17T13:52:03.062Z,98806.91
2023-01-17T13:55:10.280Z,98806.94
2023-01-17T13:58:29.736Z,98795.00
2023-01-17T14:01:54.197Z,98803.38
2023-01-17T14:05:12.242Z,98793.38
2023-01-17T14:08:20.633Z,98791.56
2023-01-17T14:11:26.028Z,98786.38
2023-01-17T14:14:45.606Z,98793.88
2023-01-17T14:17:57.075Z,98790.50
2023-01-17T14:21:10.005Z,98792.16
2023-01-17T14:24:18.202Z,98779.47
2023-01-17T14:27:25.826Z,98771.66
2023-01-17T14:30:36.748Z,98792.72
2023-01-17T14:33:45.284Z,98781.00
2023-01-17T14:36:52.260Z,98787.41
2023-01-17T14:40:01.129Z,98769.69
2023-01-17T14:43:08.601Z,98779.75
2023-01-17T14:46:19.884Z,98779.66
2023-01-17T14:49:27.046Z,98774.56
2023-01-17T14:52:34.160Z,98779.44
2023-01-17T14:55:39.906Z,98781.91
2023-01-17T14:58:46.732Z,98766.84
2023-01-17T15:02:06.679Z,98775.16
2023-01-17T15:05:18.023Z,98767.47
2023-01-17T15:08:26.741Z,98766.59
2023-01-17T15:11:33.991Z,98765.78
2023-01-17T15:14:41.262Z,98761.47
2023-01-17T15:17:46.756Z,98757.22
2023-01-17T15:20:59.601Z,98766.44
2023-01-17T15:24:09.111Z,98754.75
2023-01-17T15:27:16.359Z,98751.44
2023-01-17T15:30:25.042Z,98754.63
2023-01-17T15:33:31.231Z,98752.06
2023-01-17T15:36:36.827Z,98747.97
2023-01-17T15:39:43.614Z,98744.56
2023-01-17T15:42:50.642Z,98745.28
2023-01-17T15:45:57.284Z,98740.81
2023-01-17T15:49:19.991Z,98751.03
2023-01-17T15:52:25.037Z,98752.59
2023-01-17T15:55:37.810Z,98750.06
2023-01-17T15:58:43.360Z,98752.56
2023-01-17T16:01:55.876Z,98744.97
2023-01-17T16:05:01.244Z,98743.91
2023-01-17T16:08:26.390Z,98746.44
2023-01-17T16:11:32.953Z,98748.13
2023-01-17T16:14:56.312Z,98748.97
2023-01-17T16:18:07.726Z,98748.88
2023-01-17T16:21:20.680Z,98751.34
2023-01-17T16:24:25.773Z,98743.81
2023-01-17T16:27:32.530Z,98740.34
2023-01-17T16:30:37.687Z,98733.66
2023-01-17T16:33:43.813Z,98744.47
2023-01-17T16:36:54.141Z,98744.53
2023-01-17T16:40:04.141Z,98745.09
2023-01-17T16:43:11.952Z,98751.09
2023-01-17T16:46:20.744Z,98736.00
2023-01-17T16:49:26.592Z,98741.69
2023-01-17T16:52:31.476Z,98739.28
2023-01-17T16:55:36.565Z,98739.16
2023-01-17T16:58:43.698Z,98739.16
2023-01-17T17:01:55.839Z,98728.13
2023-01-17T17:05:05.508Z,98735.59
2023-01-17T17:08:11.288Z,98728.25
2023-01-17T17:11:18.025Z,98733.91
2023-01-17T17:14:24.619Z,98731.34
2023-01-17T17:17:29.978Z,98733.00
2023-01-17T17:20:35.458Z,98725.47
2023-01-17T17:23:43.272Z,98727.94
2023-01-17T17:26:49.131Z,98728.84
2023-01-17T17:29:56.054Z,98726.97
2023-01-17T17:33:04.813Z,98704.88
2023-01-17T17:36:11.265Z,98705.59
2023-01-17T17:39:16.672Z,98705.50
2023-01-17T17:42:30.729Z,98711.34
2023-01-17T17:45:38.439Z,98701.19
2023-01-17T17:48:47.845Z,98703.72
2023-01-17T17:51:56.304Z,98704.47
2023-01-17T17:55:02.320Z,98701.78
2023-01-17T17:58:07.549Z,98705.16
2023-01-17T18:01:15.976Z,98696.66
2023-01-17T18:04:22.772Z,98691.47
2023-01-17T18:07:28.132Z,98692.06
2023-01-17T18:10:33.073Z,98696.34
2023-01-17T18:13:38.504Z,98699.69
2023-01-17T18:16:47.165Z,98696.13
2023-01-17T18:19:52.721Z,98691.91
2023-01-17T18:22:57.953Z,98695.16
2023-01-17T18:26:03.578Z,98701.09
2023-01-17T18:29:11.049Z,98699.16
2023-01-17T18:32:17.632Z,98689.84
2023-01-17T18:35:22.756Z,98694.06
2023-01-17T18:38:38.485Z,98691.44
2023-01-17T18:41:43.603Z,98688.75
2023-01-17T18:44:50.019Z,98690.47
2023-01-17T18:47:56.506Z,98687.00
2023-01-17T18:51:02.898Z,98684.31
2023-01-17T18:54:09.016Z,98684.25
2023-01-17T18:57:14.325Z,98684.97
2023-01-17T19:00:20.196Z,98691.63
2023-01-17T19:03:31.628Z,98687.44
2023-01-17T19:06:38.442Z,98685.66
2023-01-17T19:09:44.260Z,98681.38
2023-01-17T19:12:49.403Z,98681.38
2023-01-17T19:15:55.010Z,98684.00
2023-01-17T19:19:04.967Z,98684.66
2023-01-17T19:22:11.733Z,98682.91
2023-01-17T19:25:16.929Z,98680.38
2023-01-17T19:28:22.496Z,98685.50
2023-01-17T19:31:29.231Z,98674.31
2023-01-17T19:34:35.587Z,98678.44
2023-01-17T19:37:40.727Z,98671.75
2023-01-17T19:40:48.196Z,98670.81
2023-01-17T19:43:56.456Z,98677.56
2023-01-17T19:47:01.907Z,98680.88
2023-01-17T19:50:12.577Z,98678.34
2023-01-17T19:53:17.882Z,98681.53
2023-01-17T19:56:25.003Z,98677.34
2023-01-17T19:59:30.284Z,98688.34
2023-01-17T20:02:36.022Z,98692.34
2023-01-17T20:05:42.290Z,98678.72
2023-01-17T20:08:48.385Z,98677.88
2023-01-17T20:11:53.836Z,98683.81
2023-01-17T20:15:01.600Z,98686.34
2023-01-17T20:18:07.484Z,98678.00
2023-01-17T20:21:18.131Z,98682.00
2023-01-17T20:24:23.010Z,98689.66
2023-01-17T20:27:30.207Z,98673.72
2023-01-17T20:30:35.497Z,98683.03
2023-01-17T20:33:41.183Z,98679.81
2023-01-17T20:36:48.179Z,98675.66
2023-01-17T20:39:54.135Z,98679.06
2023-01-17T20:42:59.297Z,98687.22
2023-01-17T20:46:05.004Z,98671.47
2023-01-17T20:49:15.469Z,98677.25
2023-01-17T20:52:22.103Z,98667.88
2023-01-17T20:55:27.268Z,98678.81
2023-01-17T20:58:34.114Z,98671.19
2023-01-17T21:01:39.723Z,98679.63
2023-01-17T21:04:45.436Z,98682.13
2023-01-17T21:07:52.426Z,98683.75
2023-01-17T21:10:58.221Z,98695.47
2023-01-17T21:14:03.339Z,98687.13
2023-01-17T21:17:09.017Z,98691.25
2023-01-17T21:20:15.058Z,98686.25
2023-01-17T21:23:23.584Z,98693.56
2023-01-17T21:26:29.807Z,98692.72
2023-01-17T21:29:35.008Z,98690.00
2023-01-17T21:32:40.282Z,98684.13
2023-01-17T21:35:47.248Z,98678.09
2023-01-17T21:38:59.333Z,98679.84
2023-01-17T21:42:04.581Z,98676.38
2023-01-17T21:45:11.396Z,98669.47
2023-01-17T21:48:17.120Z,98674.41
2023-01-17T21:51:45.932Z,98667.81
2023-01-17T21:55:09.185Z,98671.13
2023-01-17T21:58:32.163Z,98670.22
2023-01-17T22:01:37.354Z,98666.81
2023-01-17T22:04:44.059Z,98660.63
2023-01-17T22:08:06.487Z,98660.06
2023-01-17T22:11:14.330Z,98657.16
2023-01-17T22:14:22.361Z,98664.66
2023-01-17T22:17:27.513Z,98661.47
2023-01-17T22:20:34.213Z,98658.88
2023-01-17T22:23:39.500Z,98668.06
2023-01-17T22:26:46.088Z,98667.22
2023-01-17T22:29:51.263Z,98658.81
2023-01-17T22:32:58.261Z,98667.13
2023-01-17T22:36:04.013Z,98665.47
2023-01-17T22:39:10.439Z,98661.25
2023-01-17T22:42:16.952Z,98657.88
2023-01-17T22:45:21.812Z,98659.69
2023-01-17T22:48:27.177Z,98660.41
2023-01-17T22:51:32.562Z,98658.66
2023-01-17T22:54:37.660Z,98665.47
2023-01-17T22:57:46.957Z,98664.47
2023-01-17T23:00:52.173Z,98673.13
2023-01-17T23:03:58.751Z,98665.38
2023-01-17T23:07:04.280Z,98674.66
2023-01-17T23:10:10.201Z,98667.13
2023-01-17T23:13:16.807Z,98666.19
2023-01-17T23:16:39.353Z,98665.38
2023-01-17T23:19:49.401Z,98669.44
2023-01-17T23:22:54.522Z,98675.47
2023-01-17T23:26:01.914Z,98663.00
2023-01-17T23:29:07.165Z,98658.75
2023-01-17T23:32:14.879Z,98659.00
2023-01-17T23:35:21.789Z,98658.31
2023-01-17T23:38:34.120Z,98647.38
2023-01-17T23:41:57.020Z,98662.53
2023-01-17T23:45:04.877Z,98660.63
2023-01-17T23:48:15.693Z,98653.06
2023-01-17T23:51:20.963Z,98653.94
2023-01-17T23:54:26.169Z,98659.03
2023-01-17T23:57:31.236Z,98651.47
